createdAt,value
2023-04-27T00:00:40.706Z,4.10
2023-04-27T00:03:08.581Z,5.47
2023-04-27T00:05:40.269Z,4.25
2023-04-27T00:08:08.516Z,7.03
2023-04-27T00:10:36.094Z,7.25
2023-04-27T00:13:04.005Z,5.20
2023-04-27T00:15:31.632Z,3.45
2023-04-27T00:18:00.092Z,3.45
2023-04-27T00:20:27.828Z,6.72
2023-04-27T00:22:55.439Z,2.90
2023-04-27T00:25:25.844Z,3.13
2023-04-27T00:27:53.399Z,3.50
2023-04-27T00:30:21.171Z,3.20
2023-04-27T00:32:49.096Z,3.28
2023-04-27T00:35:17.512Z,3.15
2023-04-27T00:37:45.113Z,4.97
2023-04-27T00:40:13.383Z,2.97
2023-04-27T00:42:41.159Z,3.53
2023-04-27T00:45:10.809Z,5.50
2023-04-27T00:47:38.680Z,6.28
2023-04-27T00:50:08.910Z,2.92
2023-04-27T00:52:37.795Z,4.15
2023-04-27T00:55:09.695Z,5.93
2023-04-27T00:57:37.482Z,3.53
2023-04-27T01:00:07.494Z,3.13
2023-04-27T01:02:37.302Z,4.60
2023-04-27T01:05:06.111Z,4.95
2023-04-27T01:07:33.818Z,6.50
2023-04-27T01:10:01.561Z,3.65
2023-04-27T01:12:29.466Z,4.07
2023-04-27T01:14:57.188Z,3.35
2023-04-27T01:17:25.112Z,2.47
2023-04-27T01:19:55.722Z,3.13
2023-04-27T01:22:23.648Z,2.47
2023-04-27T01:24:51.631Z,2.50
2023-04-27T01:27:19.321Z,3.08
2023-04-27T01:29:46.826Z,2.80
2023-04-27T01:32:14.498Z,2.22
2023-04-27T01:34:42.318Z,2.47
2023-04-27T01:37:10.170Z,5.53
2023-04-27T01:39:38.276Z,2.78
2023-04-27T01:42:06.124Z,2.50
2023-04-27T01:44:33.900Z,2.20
2023-04-27T01:47:02.176Z,1.98
2023-04-27T01:49:29.700Z,3.88
2023-04-27T01:51:57.312Z,5.97
2023-04-27T01:54:25.986Z,2.38
2023-04-27T01:56:54.959Z,4.55
2023-04-27T01:59:22.886Z,4.32
2023-04-27T02:01:50.530Z,4.43
2023-04-27T02:04:18.817Z,4.10
2023-04-27T02:06:47.199Z,2.00
2023-04-27T02:09:15.650Z,3.30
2023-04-27T02:11:43.946Z,2.38
2023-04-27T02:14:11.749Z,3.80
2023-04-27T02:16:39.495Z,2.35
2023-04-27T02:19:07.367Z,6.35
2023-04-27T02:21:34.932Z,2.17
2023-04-27T02:24:02.679Z,3.67
2023-04-27T02:26:30.472Z,5.07
2023-04-27T02:28:59.592Z,6.13
2023-04-27T02:31:27.578Z,2.38
2023-04-27T02:33:55.992Z,5.43
2023-04-27T02:36:26.120Z,3.25
2023-04-27T02:38:56.855Z,3.97
2023-04-27T02:41:24.560Z,2.15
2023-04-27T02:43:52.301Z,3.38
2023-04-27T02:46:19.892Z,1.85
2023-04-27T02:48:47.676Z,6.93
2023-04-27T02:51:15.637Z,5.25
2023-04-27T02:53:43.293Z,3.17
2023-04-27T02:56:10.859Z,2.05
2023-04-27T02:58:38.517Z,1.45
2023-04-27T03:01:06.203Z,2.90
2023-04-27T03:03:34.172Z,4.18
2023-04-27T03:06:02.292Z,1.58
2023-04-27T03:08:29.991Z,3.70
2023-04-27T03:10:58.904Z,3.08
2023-04-27T03:13:26.581Z,3.22
2023-04-27T03:15:54.416Z,2.47
2023-04-27T03:18:22.055Z,2.13
2023-04-27T03:20:49.797Z,9.50
2023-04-27T03:23:17.356Z,2.72
2023-04-27T03:25:45.347Z,2.20
2023-04-27T03:28:13.080Z,3.20
2023-04-27T03:30:41.500Z,3.63
2023-04-27T03:33:09.207Z,1.85
2023-04-27T03:35:37.234Z,2.13
2023-04-27T03:38:05.043Z,2.85
2023-04-27T03:40:32.958Z,2.67
2023-04-27T03:43:01.163Z,5.78
2023-04-27T03:45:29.092Z,3.45
2023-04-27T03:47:56.954Z,3.40
2023-04-27T03:50:24.728Z,2.35
2023-04-27T03:52:52.336Z,1.63
2023-04-27T03:55:21.405Z,4.65
2023-04-27T03:57:50.212Z,4.28
2023-04-27T04:00:18.578Z,3.08
2023-04-27T04:03:12.553Z,4.25
2023-04-27T04:05:41.113Z,2.05
2023-04-27T04:08:09.022Z,2.20
2023-04-27T04:10:36.651Z,2.97
2023-04-27T04:13:04.443Z,2.08
2023-04-27T04:15:32.169Z,3.53
2023-04-27T04:18:00.477Z,1.90
2023-04-27T04:20:29.004Z,7.13
2023-04-27T04:22:56.658Z,7.63
2023-04-27T04:25:26.389Z,7.40
2023-04-27T04:27:53.932Z,7.35
2023-04-27T04:30:23.640Z,10.98
2023-04-27T04:32:51.212Z,5.85
2023-04-27T04:35:20.102Z,5.50
2023-04-27T04:37:48.025Z,5.57
2023-04-27T04:40:16.156Z,9.00
2023-04-27T04:42:43.851Z,6.75
2023-04-27T04:45:11.673Z,6.38
2023-04-27T04:47:39.954Z,8.43
2023-04-27T04:50:10.226Z,7.30
2023-04-27T04:52:37.827Z,10.25
2023-04-27T04:55:07.133Z,16.08
2023-04-27T04:57:34.947Z,17.65
2023-04-27T05:00:02.847Z,8.73
2023-04-27T05:02:31.369Z,13.27
2023-04-27T05:04:59.361Z,11.73
2023-04-27T05:07:27.126Z,23.08
2023-04-27T05:09:54.768Z,14.38
2023-04-27T05:12:22.450Z,10.35
2023-04-27T05:14:50.668Z,14.65
2023-04-27T05:17:18.613Z,13.65
2023-04-27T05:19:46.279Z,9.65
2023-04-27T05:22:14.193Z,9.27
2023-04-27T05:24:42.166Z,9.63
2023-04-27T05:27:10.007Z,10.55
2023-04-27T05:29:37.668Z,11.07
2023-04-27T05:32:07.006Z,14.65
2023-04-27T05:34:34.874Z,7.78
2023-04-27T05:37:02.471Z,6.88
2023-04-27T05:39:30.528Z,15.65
2023-04-27T05:41:58.518Z,12.32
2023-04-27T05:44:28.770Z,9.63
2023-04-27T05:46:56.675Z,12.10
2023-04-27T05:49:24.432Z,9.05
2023-04-27T05:51:52.152Z,6.85
2023-04-27T05:54:19.877Z,11.85
2023-04-27T05:56:47.616Z,10.07
2023-04-27T05:59:15.551Z,6.35
2023-04-27T06:01:43.459Z,8.77
2023-04-27T06:04:11.411Z,9.63
2023-04-27T06:06:40.897Z,9.85
2023-04-27T06:09:08.506Z,8.82
2023-04-27T06:11:36.515Z,7.18
2023-04-27T06:14:04.156Z,8.02
2023-04-27T06:16:31.803Z,6.28
2023-04-27T06:18:59.781Z,7.55
2023-04-27T06:21:27.386Z,7.22
2023-04-27T06:23:55.192Z,12.23
2023-04-27T06:26:22.969Z,7.05
2023-04-27T06:28:51.010Z,3.63
2023-04-27T06:31:18.833Z,6.35
2023-04-27T06:33:46.743Z,5.40
2023-04-27T06:36:14.522Z,7.15
2023-04-27T06:38:42.297Z,4.18
2023-04-27T06:41:09.951Z,3.30
2023-04-27T06:43:37.707Z,3.20
2023-04-27T06:46:07.249Z,6.00
2023-04-27T06:48:36.200Z,6.97
2023-04-27T06:51:04.197Z,3.75
2023-04-27T06:53:32.341Z,6.05
2023-04-27T06:56:00.566Z,3.35
2023-04-27T06:58:29.763Z,2.95
2023-04-27T07:00:57.415Z,2.92
2023-04-27T07:03:25.829Z,5.53
2023-04-27T07:05:53.683Z,6.00
2023-04-27T07:08:24.291Z,3.88
2023-04-27T07:10:51.893Z,4.60
2023-04-27T07:13:19.548Z,2.00
2023-04-27T07:15:47.321Z,3.47
2023-04-27T07:18:15.190Z,5.75
2023-04-27T07:20:42.869Z,2.65
2023-04-27T07:23:11.025Z,8.32
2023-04-27T07:25:40.526Z,4.22
2023-04-27T07:28:09.219Z,3.42
2023-04-27T07:30:37.426Z,3.42
2023-04-27T07:33:05.923Z,6.25
2023-04-27T07:35:33.907Z,3.30
2023-04-27T07:38:04.885Z,2.63
2023-04-27T07:40:33.069Z,3.08
2023-04-27T07:43:01.248Z,6.05
2023-04-27T07:45:32.565Z,3.75
2023-04-27T07:48:02.538Z,4.30
2023-04-27T07:50:31.300Z,2.83
2023-04-27T07:52:59.692Z,2.72
2023-04-27T07:55:27.670Z,2.70
2023-04-27T07:57:56.803Z,2.72
2023-04-27T08:00:25.785Z,2.33
2023-04-27T08:02:55.379Z,5.63
2023-04-27T08:05:23.989Z,3.10
2023-04-27T08:07:54.607Z,4.47
2023-04-27T08:10:23.633Z,2.53
2023-04-27T08:12:51.771Z,2.53
2023-04-27T08:15:21.179Z,1.92
2023-04-27T08:17:48.905Z,3.70
2023-04-27T08:20:16.768Z,2.63
2023-04-27T08:22:44.841Z,2.45
2023-04-27T08:25:12.781Z,2.05
2023-04-27T08:27:40.858Z,2.03
2023-04-27T08:30:09.326Z,2.45
2023-04-27T08:32:37.198Z,3.38
2023-04-27T08:35:05.793Z,2.55
2023-04-27T08:37:33.664Z,3.63
2023-04-27T08:40:01.418Z,2.40
2023-04-27T08:42:30.973Z,3.38
2023-04-27T08:44:58.798Z,2.42
2023-04-27T08:47:39.000Z,4.28
2023-04-27T08:50:11.090Z,2.92
2023-04-27T08:52:39.007Z,2.53
2023-04-27T08:55:08.753Z,1.75
2023-04-27T08:57:36.642Z,1.40
2023-04-27T09:00:12.990Z,2.20
2023-04-27T09:02:47.966Z,2.47
2023-04-27T09:05:24.259Z,3.88
2023-04-27T09:08:00.431Z,2.03
2023-04-27T09:10:29.832Z,2.90
2023-04-27T09:13:01.582Z,2.53
2023-04-27T09:15:30.172Z,1.98
2023-04-27T09:17:59.245Z,2.10
2023-04-27T09:20:27.512Z,2.72
2023-04-27T09:22:58.676Z,2.30
2023-04-27T09:25:29.629Z,2.00
2023-04-27T09:27:59.388Z,2.47
2023-04-27T09:30:31.215Z,2.58
2023-04-27T09:33:02.396Z,1.63
2023-04-27T09:35:32.419Z,1.33
2023-04-27T09:38:01.245Z,2.80
2023-04-27T09:40:31.473Z,2.25
2023-04-27T09:43:04.630Z,3.20
2023-04-27T09:45:34.641Z,2.22
2023-04-27T09:48:03.400Z,2.63
2023-04-27T09:50:38.089Z,2.33
2023-04-27T09:53:15.933Z,4.35
2023-04-27T09:56:26.468Z,1.83
2023-04-27T09:59:10.777Z,1.75
2023-04-27T10:01:57.585Z,1.58
2023-04-27T10:04:58.787Z,2.35
2023-04-27T10:07:29.890Z,2.78
2023-04-27T10:10:03.132Z,2.40
2023-04-27T10:12:38.545Z,3.00
2023-04-27T10:15:17.743Z,2.45
2023-04-27T10:17:59.071Z,2.63
2023-04-27T10:20:32.967Z,1.38
2023-04-27T10:23:01.332Z,2.17
2023-04-27T10:25:43.321Z,1.60
2023-04-27T10:28:18.189Z,2.25
2023-04-27T10:30:49.255Z,2.65
2023-04-27T10:33:20.613Z,1.33
2023-04-27T10:36:00.852Z,1.70
2023-04-27T10:38:31.174Z,1.40
2023-04-27T10:41:05.850Z,2.03
2023-04-27T10:43:36.223Z,1.15
2023-04-27T10:46:15.294Z,2.05
2023-04-27T10:48:45.677Z,1.05
2023-04-27T10:51:18.222Z,1.55
2023-04-27T10:53:46.101Z,3.83
2023-04-27T10:56:13.894Z,3.45
2023-04-27T10:58:48.795Z,2.65
2023-04-27T11:01:30.053Z,2.35
2023-04-27T11:04:02.776Z,2.63
2023-04-27T11:06:35.312Z,2.33
2023-04-27T11:09:03.255Z,1.70
2023-04-27T11:11:31.234Z,1.30
2023-04-27T11:13:59.203Z,1.98
2023-04-27T11:16:27.149Z,2.35
2023-04-27T11:18:55.184Z,1.40
2023-04-27T11:21:23.910Z,1.63
2023-04-27T11:23:51.582Z,1.33
2023-04-27T11:26:22.265Z,2.25
2023-04-27T11:29:09.682Z,1.85
2023-04-27T11:31:49.605Z,1.20
2023-04-27T11:34:22.841Z,1.50
2023-04-27T11:37:18.042Z,2.33
2023-04-27T11:39:46.860Z,1.60
2023-04-27T11:42:25.486Z,3.13
2023-04-27T11:45:08.357Z,2.13
2023-04-27T11:47:36.293Z,2.13
2023-04-27T11:50:08.338Z,1.08
2023-04-27T11:52:40.450Z,2.35
2023-04-27T11:55:11.019Z,2.05
2023-04-27T11:57:39.931Z,1.95
2023-04-27T12:00:11.600Z,1.73
2023-04-27T12:02:44.277Z,2.67
2023-04-27T12:05:13.957Z,1.67
2023-04-27T12:07:43.836Z,1.90
2023-04-27T12:10:12.108Z,4.03
2023-04-27T12:12:39.948Z,3.80
2023-04-27T12:15:08.833Z,1.98
2023-04-27T12:17:36.502Z,1.15
2023-04-27T12:20:05.226Z,1.40
2023-04-27T12:22:33.590Z,2.50
2023-04-27T12:25:01.942Z,4.47
2023-04-27T12:27:29.673Z,1.50
2023-04-27T12:29:59.735Z,1.73
2023-04-27T12:32:28.249Z,2.30
2023-04-27T12:34:55.803Z,2.75
2023-04-27T12:37:25.418Z,4.10
2023-04-27T12:39:55.559Z,1.48
2023-04-27T12:42:24.716Z,1.63
2023-04-27T12:44:53.470Z,2.53
2023-04-27T12:47:43.110Z,2.38
2023-04-27T12:50:10.898Z,2.83
2023-04-27T12:52:38.809Z,2.90
2023-04-27T12:55:15.232Z,2.15
2023-04-27T12:57:49.144Z,3.10
2023-04-27T13:00:17.713Z,2.10
2023-04-27T13:02:46.502Z,1.65
2023-04-27T13:05:14.998Z,2.75
2023-04-27T13:07:42.757Z,0.95
2023-04-27T13:10:11.869Z,2.90
2023-04-27T13:12:39.808Z,1.65
2023-04-27T13:15:08.646Z,2.25
2023-04-27T13:17:36.499Z,1.00
2023-04-27T13:20:04.836Z,3.40
2023-04-27T13:22:32.767Z,3.75
2023-04-27T13:25:00.601Z,1.67
2023-04-27T13:27:28.919Z,2.13
2023-04-27T13:29:58.253Z,1.50
2023-04-27T13:32:26.109Z,1.40
2023-04-27T13:34:53.956Z,2.30
2023-04-27T13:37:22.200Z,1.25
2023-04-27T13:39:49.788Z,1.20
2023-04-27T13:42:17.717Z,1.45
2023-04-27T13:44:45.441Z,5.25
2023-04-27T13:47:13.260Z,4.70
2023-04-27T13:49:40.873Z,2.33
2023-04-27T13:52:08.644Z,4.57
2023-04-27T13:54:36.836Z,5.45
2023-04-27T13:57:04.677Z,2.38
2023-04-27T13:59:32.387Z,3.97
2023-04-27T14:02:00.115Z,4.45
2023-04-27T14:04:27.742Z,3.85
2023-04-27T14:06:55.529Z,7.93
2023-04-27T14:09:24.627Z,1.98
2023-04-27T14:11:56.772Z,3.85
2023-04-27T14:14:25.244Z,2.42
2023-04-27T14:16:57.566Z,7.03
2023-04-27T14:19:25.776Z,3.60
2023-04-27T14:21:53.947Z,3.80
2023-04-27T14:24:21.646Z,4.43
2023-04-27T14:26:51.448Z,0.80
2023-04-27T14:29:19.731Z,2.85
2023-04-27T14:31:48.314Z,3.17
2023-04-27T14:34:16.192Z,3.08
2023-04-27T14:36:44.279Z,1.42
2023-04-27T14:39:12.672Z,2.72
2023-04-27T14:41:40.537Z,5.03
2023-04-27T14:44:09.136Z,4.35
2023-04-27T14:46:37.518Z,2.15
2023-04-27T14:49:05.474Z,2.25
2023-04-27T14:51:33.927Z,4.30
2023-04-27T14:54:02.929Z,1.85
2023-04-27T14:56:31.310Z,2.95
2023-04-27T14:58:59.135Z,3.08
2023-04-27T15:01:27.404Z,3.90
2023-04-27T15:03:58.352Z,4.78
2023-04-27T15:06:29.093Z,3.63
2023-04-27T15:08:57.327Z,6.50
2023-04-27T15:11:24.852Z,3.65
2023-04-27T15:13:52.457Z,2.00
2023-04-27T15:16:20.656Z,3.33
2023-04-27T15:18:48.379Z,1.17
2023-04-27T15:21:16.467Z,1.27
2023-04-27T15:23:44.204Z,3.33
2023-04-27T15:26:12.085Z,4.60
2023-04-27T15:28:39.669Z,5.40
2023-04-27T15:31:07.636Z,3.42
2023-04-27T15:33:35.630Z,4.10
2023-04-27T15:36:03.903Z,2.00
2023-04-27T15:38:31.569Z,3.63
2023-04-27T15:40:59.535Z,5.90
2023-04-27T15:43:27.417Z,5.68
2023-04-27T15:45:55.944Z,6.07
2023-04-27T15:48:23.913Z,11.73
2023-04-27T15:50:51.657Z,7.85
2023-04-27T15:53:19.350Z,3.83
2023-04-27T15:55:47.224Z,4.22
2023-04-27T15:58:16.716Z,8.50
2023-04-27T16:00:44.397Z,10.50
2023-04-27T16:03:14.582Z,6.07
2023-04-27T16:05:42.493Z,11.13
2023-04-27T16:08:10.209Z,5.88
2023-04-27T16:10:38.113Z,4.13
2023-04-27T16:13:05.849Z,5.35
2023-04-27T16:15:33.529Z,11.75
2023-04-27T16:18:02.488Z,4.93
2023-04-27T16:20:33.127Z,7.38
2023-04-27T16:23:03.315Z,8.10
2023-04-27T16:25:31.317Z,10.90
2023-04-27T16:28:00.461Z,9.07
2023-04-27T16:30:28.721Z,3.50
2023-04-27T16:32:59.749Z,6.65
2023-04-27T16:35:29.509Z,3.13
2023-04-27T16:37:57.505Z,8.30
2023-04-27T16:40:25.866Z,8.43
2023-04-27T16:42:55.464Z,4.80
2023-04-27T16:45:23.302Z,10.50
2023-04-27T16:47:51.038Z,4.97
2023-04-27T16:50:18.865Z,5.60
2023-04-27T16:52:46.897Z,6.85
2023-04-27T16:55:14.835Z,3.88
2023-04-27T16:57:42.850Z,4.88
2023-04-27T17:00:12.493Z,10.52
2023-04-27T17:02:42.958Z,8.50
2023-04-27T17:05:12.459Z,10.45
2023-04-27T17:07:40.207Z,8.23
2023-04-27T17:10:09.554Z,5.05
2023-04-27T17:12:37.826Z,7.22
2023-04-27T17:15:07.658Z,7.70
2023-04-27T17:17:35.752Z,3.50
2023-04-27T17:20:03.852Z,5.05
2023-04-27T17:22:33.101Z,9.48
2023-04-27T17:25:01.237Z,8.10
2023-04-27T17:27:29.946Z,6.68
2023-04-27T17:29:57.966Z,6.15
2023-04-27T17:32:26.446Z,8.90
2023-04-27T17:34:55.002Z,3.13
2023-04-27T17:37:22.883Z,7.15
2023-04-27T17:39:54.652Z,7.85
2023-04-27T17:42:22.821Z,5.85
2023-04-27T17:44:50.692Z,5.53
2023-04-27T17:47:20.886Z,4.53
2023-04-27T17:49:48.990Z,7.28
2023-04-27T17:52:16.800Z,9.75
2023-04-27T17:54:44.417Z,8.77
2023-04-27T17:57:11.942Z,13.05
2023-04-27T17:59:39.685Z,9.43
2023-04-27T18:02:07.985Z,8.73
2023-04-27T18:04:36.069Z,6.10
2023-04-27T18:07:03.829Z,11.35
2023-04-27T18:09:33.174Z,7.38
2023-04-27T18:12:02.565Z,5.53
2023-04-27T18:14:31.013Z,8.88
2023-04-27T18:16:59.419Z,7.85
2023-04-27T18:19:27.632Z,13.90
2023-04-27T18:21:56.157Z,8.80
2023-04-27T18:24:24.425Z,12.88
2023-04-27T18:26:52.508Z,8.85
2023-04-27T18:29:20.951Z,13.73
2023-04-27T18:31:49.574Z,11.95
2023-04-27T18:34:17.306Z,14.35
2023-04-27T18:36:50.211Z,12.88
2023-04-27T18:39:20.740Z,13.80
2023-04-27T18:41:48.533Z,10.35
2023-04-27T18:44:17.098Z,8.40
2023-04-27T18:46:45.948Z,6.35
2023-04-27T18:49:13.973Z,12.18
2023-04-27T18:51:42.201Z,6.78
2023-04-27T18:54:10.024Z,6.50
2023-04-27T18:56:38.017Z,11.13
2023-04-27T18:59:06.409Z,12.20
2023-04-27T19:01:34.539Z,19.23
2023-04-27T19:04:02.736Z,11.27
2023-04-27T19:06:31.723Z,11.10
2023-04-27T19:09:00.628Z,13.65
2023-04-27T19:11:29.444Z,8.75
2023-04-27T19:13:57.579Z,10.27
2023-04-27T19:16:25.492Z,14.45
2023-04-27T19:18:54.035Z,13.18
2023-04-27T19:21:21.831Z,7.85
2023-04-27T19:23:49.715Z,9.43
2023-04-27T19:26:17.486Z,4.63
2023-04-27T19:28:45.228Z,13.57
2023-04-27T19:31:12.940Z,10.32
2023-04-27T19:33:46.816Z,12.50
2023-04-27T19:36:15.395Z,7.30
2023-04-27T19:38:43.267Z,14.90
2023-04-27T19:41:14.168Z,8.55
2023-04-27T19:43:42.717Z,14.27
2023-04-27T19:46:15.443Z,9.57
2023-04-27T19:48:43.331Z,13.18
2023-04-27T19:51:11.241Z,8.30
2023-04-27T19:53:39.297Z,7.53
2023-04-27T19:56:08.295Z,14.55
2023-04-27T19:58:37.364Z,7.55
2023-04-27T20:01:05.295Z,16.30
2023-04-27T20:03:33.319Z,10.13
2023-04-27T20:06:01.729Z,5.95
2023-04-27T20:08:30.128Z,8.07
2023-04-27T20:10:57.872Z,13.25
2023-04-27T20:13:25.677Z,14.05
2023-04-27T20:15:53.909Z,12.25
2023-04-27T20:18:22.068Z,9.73
2023-04-27T20:20:50.904Z,17.00
2023-04-27T20:23:19.650Z,12.73
2023-04-27T20:25:47.369Z,12.85
2023-04-27T20:28:15.215Z,18.92
2023-04-27T20:30:42.814Z,12.40
2023-04-27T20:33:12.888Z,23.48
2023-04-27T20:35:41.017Z,16.30
2023-04-27T20:38:09.091Z,18.17
2023-04-27T20:40:38.513Z,17.25
2023-04-27T20:43:06.663Z,12.05
2023-04-27T20:45:34.592Z,13.30
2023-04-27T20:48:03.555Z,12.38
2023-04-27T20:50:31.414Z,20.00
2023-04-27T20:52:59.177Z,27.85
2023-04-27T20:55:27.450Z,28.23
2023-04-27T20:57:55.553Z,25.50
2023-04-27T21:00:23.547Z,33.13
2023-04-27T21:02:56.733Z,25.95
2023-04-27T21:05:26.077Z,30.48
2023-04-27T21:07:54.249Z,25.17
2023-04-27T21:10:22.061Z,26.38
2023-04-27T21:12:49.903Z,15.90
2023-04-27T21:15:17.546Z,29.80
2023-04-27T21:17:45.720Z,26.23
2023-04-27T21:20:13.416Z,21.65
2023-04-27T21:22:41.213Z,18.73
2023-04-27T21:25:13.201Z,22.90
2023-04-27T21:27:43.334Z,17.65
2023-04-27T21:30:11.796Z,14.65
2023-04-27T21:32:39.877Z,20.20
2023-04-27T21:35:09.263Z,20.48
2023-04-27T21:37:37.672Z,16.73
2023-04-27T21:40:06.648Z,18.00
2023-04-27T21:42:34.492Z,21.08
2023-04-27T21:45:05.000Z,20.50
2023-04-27T21:47:32.916Z,18.48
2023-04-27T21:50:00.876Z,22.73
2023-04-27T21:52:28.630Z,22.02
2023-04-27T21:54:56.547Z,18.75
2023-04-27T21:57:27.510Z,22.95
2023-04-27T21:59:57.380Z,16.60
2023-04-27T22:02:25.659Z,15.95
2023-04-27T22:04:54.099Z,18.25
2023-04-27T22:07:22.026Z,16.08
2023-04-27T22:09:49.715Z,18.23
2023-04-27T22:12:17.563Z,18.55
2023-04-27T22:14:47.179Z,17.67
2023-04-27T22:17:15.473Z,16.17
2023-04-27T22:19:45.466Z,13.32
2023-04-27T22:22:13.940Z,18.10
2023-04-27T22:24:41.742Z,14.80
2023-04-27T22:27:11.963Z,11.80
2023-04-27T22:29:39.606Z,14.80
2023-04-27T22:32:08.511Z,14.30
2023-04-27T22:34:37.922Z,14.80
2023-04-27T22:37:06.299Z,10.57
2023-04-27T22:39:35.144Z,9.65
2023-04-27T22:42:03.570Z,12.25
2023-04-27T22:44:31.969Z,8.70
2023-04-27T22:47:02.957Z,11.63
2023-04-27T22:49:32.165Z,9.65
2023-04-27T22:52:01.445Z,10.32
2023-04-27T22:54:30.733Z,8.85
2023-04-27T22:56:59.110Z,7.07
2023-04-27T22:59:27.460Z,7.03
2023-04-27T23:01:56.059Z,6.43
2023-04-27T23:04:25.162Z,11.43
2023-04-27T23:06:54.055Z,8.52
2023-04-27T23:09:26.145Z,7.70
2023-04-27T23:11:54.019Z,10.35
2023-04-27T23:14:21.608Z,8.98
2023-04-27T23:16:49.160Z,6.85
2023-04-27T23:19:18.336Z,8.18
2023-04-27T23:21:46.087Z,10.27
2023-04-27T23:24:17.533Z,10.23
2023-04-27T23:26:45.831Z,7.75
2023-04-27T23:29:15.336Z,7.35
2023-04-27T23:31:43.530Z,9.50
2023-04-27T23:34:11.291Z,7.22
2023-04-27T23:36:39.215Z,6.35
2023-04-27T23:39:10.026Z,6.25
2023-04-27T23:41:38.740Z,7.07
2023-04-27T23:44:07.303Z,7.45
2023-04-27T23:46:35.540Z,5.57
2023-04-27T23:49:06.136Z,5.45
2023-04-27T23:51:34.515Z,7.15
2023-04-27T23:54:02.792Z,4.60
2023-04-27T23:56:31.577Z,7.38
2023-04-27T23:59:00.945Z,6.47
